createdAt,value
2022-09-10T00:02:12.337Z,100919.38
2022-09-10T00:04:39.265Z,100914.22
2022-09-10T00:07:06.153Z,100911.66
2022-09-10T00:09:33.038Z,100914.31
2022-09-10T00:11:59.899Z,100907.31
2022-09-10T00:14:26.787Z,100909.97
2022-09-10T00:16:54.829Z,100914.44
2022-09-10T00:19:22.152Z,100906.63
2022-09-10T00:21:50.670Z,100906.69
2022-09-10T00:24:17.613Z,100899.72
2022-09-10T00:26:45.667Z,100897.94
2022-09-10T00:29:18.387Z,100902.38
2022-09-10T00:31:45.445Z,100895.38
2022-09-10T00:34:14.323Z,100891.84
2022-09-10T00:36:43.902Z,100890.16
2022-09-10T00:39:15.085Z,100898.09
2022-09-10T00:41:44.632Z,100902.50
2022-09-10T00:44:43.691Z,100902.50
2022-09-10T00:47:22.367Z,100898.09
2022-09-10T00:50:20.863Z,100906.00
2022-09-10T00:52:49.565Z,100895.41
2022-09-10T00:55:17.634Z,100900.69
2022-09-10T00:57:47.661Z,100905.06
2022-09-10T01:00:16.035Z,100905.06
2022-09-10T01:02:43.254Z,100910.31
2022-09-10T01:05:12.035Z,100911.19
2022-09-10T01:07:39.897Z,100907.72
2022-09-10T01:10:18.057Z,100904.28
2022-09-10T01:13:03.415Z,100915.66
2022-09-10T01:15:53.046Z,100913.91
2022-09-10T01:19:02.351Z,100914.81
2022-09-10T01:21:57.361Z,100913.16
2022-09-10T01:25:00.685Z,100907.97
2022-09-10T01:27:44.865Z,100910.63
2022-09-10T01:30:25.056Z,100914.16
2022-09-10T01:33:23.398Z,100908.00
2022-09-10T01:36:01.778Z,100908.00
2022-09-10T01:38:35.710Z,100914.16
2022-09-10T01:41:04.572Z,100919.44
2022-09-10T01:43:37.582Z,100917.72
2022-09-10T01:46:21.458Z,100919.50
2022-09-10T01:49:07.761Z,100922.13
2022-09-10T01:51:40.394Z,100927.44
2022-09-10T01:54:50.818Z,100919.56
2022-09-10T01:57:52.928Z,100917.84
2022-09-10T02:00:22.219Z,100913.47
2022-09-10T02:03:01.691Z,100903.06
2022-09-10T02:05:35.250Z,100908.28
2022-09-10T02:08:13.943Z,100919.72
2022-09-10T02:11:06.807Z,100915.44
2022-09-10T02:13:36.830Z,100926.94
2022-09-10T02:16:31.251Z,100927.88
2022-09-10T02:19:00.683Z,100925.25
2022-09-10T02:21:27.785Z,100921.75
2022-09-10T02:24:05.966Z,100925.25
2022-09-10T02:26:40.288Z,100919.16
2022-09-10T02:29:08.716Z,100915.72
2022-09-10T02:31:36.403Z,100913.09
2022-09-10T02:34:03.580Z,100910.47
2022-09-10T02:36:31.989Z,100914.00
2022-09-10T02:39:00.433Z,100912.25
2022-09-10T02:41:30.131Z,100917.53
2022-09-10T02:43:57.551Z,100920.19
2022-09-10T02:46:24.773Z,100919.31
2022-09-10T02:48:55.212Z,100919.34
2022-09-10T02:51:24.429Z,100915.84
2022-09-10T02:53:51.823Z,100914.97
2022-09-10T02:56:23.697Z,100908.00
2022-09-10T02:58:51.062Z,100919.41
2022-09-10T03:01:21.165Z,100915.06
2022-09-10T03:03:58.162Z,100904.59
2022-09-10T03:06:26.477Z,100913.41
2022-09-10T03:08:57.654Z,100896.84
2022-09-10T03:11:27.473Z,100900.38
2022-09-10T03:13:55.785Z,100895.19
2022-09-10T03:16:24.364Z,100895.19
2022-09-10T03:18:52.258Z,100892.59
2022-09-10T03:21:22.315Z,100899.59
2022-09-10T03:23:51.245Z,100895.28
2022-09-10T03:26:25.929Z,100900.50
2022-09-10T03:28:54.077Z,100905.81
2022-09-10T03:31:23.656Z,100908.44
2022-09-10T03:33:51.449Z,100911.09
2022-09-10T03:36:20.885Z,100911.97
2022-09-10T03:38:49.408Z,100905.88
2022-09-10T03:41:17.252Z,100914.66
2022-09-10T03:43:44.970Z,100906.78
2022-09-10T03:46:12.159Z,100925.16
2022-09-10T03:48:43.605Z,100922.53
2022-09-10T03:51:11.107Z,100921.66
2022-09-10T03:53:39.239Z,100920.81
2022-09-10T03:56:08.394Z,100920.88
2022-09-10T03:58:35.877Z,100920.00
2022-09-10T04:01:03.889Z,100923.53
2022-09-10T04:03:33.367Z,100907.84
2022-09-10T04:06:00.285Z,100920.91
2022-09-10T04:08:27.225Z,100924.41
2022-09-10T04:10:55.149Z,100924.41
2022-09-10T04:13:23.048Z,100919.09
2022-09-10T04:15:50.040Z,100914.72
2022-09-10T04:18:17.125Z,100914.69
2022-09-10T04:20:48.131Z,100911.16
2022-09-10T04:23:16.430Z,100910.28
2022-09-10T04:25:46.585Z,100912.91
2022-09-10T04:28:13.672Z,100919.06
2022-09-10T04:30:40.629Z,100922.53
2022-09-10T04:33:09.469Z,100911.16
2022-09-10T04:35:36.374Z,100920.75
2022-09-10T04:38:07.150Z,100916.38
2022-09-10T04:40:38.102Z,100913.78
2022-09-10T04:43:05.031Z,100919.03
2022-09-10T04:45:35.125Z,100919.94
2022-09-10T04:48:06.722Z,100919.03
2022-09-10T04:50:34.499Z,100919.06
2022-09-10T04:53:12.256Z,100916.47
2022-09-10T04:55:43.008Z,100919.16
2022-09-10T04:58:10.652Z,100917.44
2022-09-10T05:00:39.370Z,100920.91
2022-09-10T05:03:07.187Z,100923.56
2022-09-10T05:05:34.862Z,100920.06
2022-09-10T05:08:08.140Z,100921.06
2022-09-10T05:10:38.276Z,100916.78
2022-09-10T05:13:07.264Z,100929.00
2022-09-10T05:15:35.717Z,100928.19
2022-09-10T05:18:04.538Z,100936.97
2022-09-10T05:20:35.703Z,100923.91
2022-09-10T05:23:02.616Z,100930.88
2022-09-10T05:25:29.617Z,100923.91
2022-09-10T05:27:58.374Z,100926.47
2022-09-10T05:30:25.246Z,100925.53
2022-09-10T05:32:53.271Z,100923.75
2022-09-10T05:35:20.421Z,100916.72
2022-09-10T05:37:48.639Z,100925.41
2022-09-10T05:40:15.947Z,100927.19
2022-09-10T05:42:44.234Z,100922.84
2022-09-10T05:45:11.307Z,100923.66
2022-09-10T05:47:38.266Z,100937.63
2022-09-10T05:50:07.288Z,100944.59
2022-09-10T05:52:35.127Z,100936.69
2022-09-10T05:55:06.796Z,100941.03
2022-09-10T05:57:33.680Z,100940.16
2022-09-10T06:00:02.019Z,100935.81
2022-09-10T06:02:30.546Z,100935.91
2022-09-10T06:04:58.572Z,100937.69
2022-09-10T06:07:28.212Z,100935.00
2022-09-10T06:09:55.851Z,100931.41
2022-09-10T06:12:35.410Z,100939.09
2022-09-10T06:15:03.659Z,100939.84
2022-09-10T06:17:30.591Z,100937.88
2022-09-10T06:19:58.016Z,100940.34
2022-09-10T06:22:25.075Z,100942.84
2022-09-10T06:24:53.730Z,100941.00
2022-09-10T06:27:23.227Z,100947.94
2022-09-10T06:29:51.276Z,100948.63
2022-09-10T06:32:18.259Z,100946.75
2022-09-10T06:34:46.543Z,100954.47
2022-09-10T06:37:13.440Z,100949.13
2022-09-10T06:39:40.970Z,100962.13
2022-09-10T06:42:08.131Z,100948.81
2022-09-10T06:44:54.800Z,100947.84
2022-09-10T06:48:25.456Z,100959.00
2022-09-10T06:50:21.443Z,100951.91
2022-09-10T06:52:50.220Z,100953.63
2022-09-10T06:55:20.652Z,100956.34
2022-09-10T06:57:47.617Z,100949.28
2022-09-10T07:00:17.451Z,100957.13
2022-09-10T07:02:50.452Z,100956.09
2022-09-10T07:05:17.754Z,100952.44
2022-09-10T07:07:46.356Z,100957.53
2022-09-10T07:10:14.406Z,100956.72
2022-09-10T07:12:41.913Z,100963.72
2022-09-10T07:15:09.638Z,100951.31
2022-09-10T07:17:37.015Z,100958.16
2022-09-10T07:20:04.631Z,100959.69
2022-09-10T07:22:43.712Z,100960.34
2022-09-10T07:25:12.817Z,100968.06
2022-09-10T07:27:57.957Z,100964.34
2022-09-10T07:30:25.640Z,100968.59
2022-09-10T07:32:52.804Z,100963.97
2022-09-10T07:35:25.467Z,100964.63
2022-09-10T07:37:54.264Z,100967.03
2022-09-10T07:40:23.403Z,100959.03
2022-09-10T07:42:52.450Z,100954.50
2022-09-10T07:45:19.760Z,100957.97
2022-09-10T07:47:48.618Z,100955.28
2022-09-10T07:50:16.483Z,100947.25
2022-09-10T07:52:44.475Z,100950.47
2022-09-10T07:55:11.517Z,100953.75
2022-09-10T07:57:40.535Z,100957.00
2022-09-10T08:00:16.705Z,100955.94
2022-09-10T08:02:46.976Z,100955.00
2022-09-10T08:05:18.552Z,100961.84
2022-09-10T08:07:46.608Z,100959.06
2022-09-10T08:10:13.553Z,100966.84
2022-09-10T08:12:41.975Z,100971.19
2022-09-10T08:15:10.809Z,100964.03
2022-09-10T08:17:40.051Z,100956.84
2022-09-10T08:20:09.850Z,100970.56
2022-09-10T08:22:38.633Z,100969.47
2022-09-10T08:25:06.343Z,100970.97
2022-09-10T08:27:35.134Z,100970.81
2022-09-10T08:30:05.668Z,100976.75
2022-09-10T08:32:35.834Z,100979.47
2022-09-10T08:35:04.945Z,100981.16
2022-09-10T08:37:33.378Z,100983.59
2022-09-10T08:40:00.364Z,100991.28
2022-09-10T08:42:39.946Z,100983.28
2022-09-10T08:45:17.424Z,100989.19
2022-09-10T08:47:57.150Z,100985.44
2022-09-10T08:50:49.707Z,100988.75
2022-09-10T08:53:44.232Z,100990.22
2022-09-10T08:56:21.494Z,100988.16
2022-09-10T08:59:00.023Z,100979.19
2022-09-10T09:01:45.768Z,100976.41
2022-09-10T09:04:39.651Z,100980.75
2022-09-10T09:07:15.812Z,100977.13
2022-09-10T09:09:51.469Z,100970.88
2022-09-10T09:12:36.177Z,100975.00
2022-09-10T09:15:25.560Z,100974.75
2022-09-10T09:18:15.460Z,100961.25
2022-09-10T09:20:52.560Z,100974.13
2022-09-10T09:23:23.619Z,100967.75
2022-09-10T09:26:04.689Z,100962.41
2022-09-10T09:28:49.409Z,100972.84
2022-09-10T09:31:26.280Z,100979.81
2022-09-10T09:34:05.891Z,100976.09
2022-09-10T09:36:42.433Z,100982.91
2022-09-10T09:39:42.642Z,100973.91
2022-09-10T09:42:24.779Z,100971.81
2022-09-10T09:45:32.425Z,100971.41
2022-09-10T09:47:59.785Z,100963.41
2022-09-10T09:50:30.032Z,100968.75
2022-09-10T09:52:57.278Z,100965.22
2022-09-10T09:55:38.872Z,100965.09
2022-09-10T09:58:26.833Z,100971.91
2022-09-10T10:01:09.740Z,100970.56
2022-09-10T10:03:58.558Z,100978.91
2022-09-10T10:06:34.671Z,100972.41
2022-09-10T10:09:22.927Z,100973.66
2022-09-10T10:11:58.293Z,100975.88
2022-09-10T10:14:41.530Z,100976.50
2022-09-10T10:17:30.220Z,100976.06
2022-09-10T10:20:14.400Z,100963.47
2022-09-10T10:22:44.069Z,100967.34
2022-09-10T10:25:38.364Z,100967.16
2022-09-10T10:28:31.871Z,100965.13
2022-09-10T10:31:01.084Z,100963.06
2022-09-10T10:33:31.515Z,100971.53
2022-09-10T10:36:19.631Z,100959.66
2022-09-10T10:39:47.605Z,100961.03
2022-09-10T10:42:45.767Z,100955.38
2022-09-10T10:45:45.963Z,100963.06
2022-09-10T10:48:33.903Z,100965.47
2022-09-10T10:51:15.040Z,100962.53
2022-09-10T10:54:29.509Z,100959.63
2022-09-10T10:57:30.495Z,100963.84
2022-09-10T11:00:12.878Z,100966.25
2022-09-10T11:03:15.924Z,100965.84
2022-09-10T11:05:48.302Z,100965.47
2022-09-10T11:08:29.996Z,100960.63
2022-09-10T11:11:13.789Z,100953.41
2022-09-10T11:14:25.208Z,100966.28
2022-09-10T11:17:05.628Z,100965.34
2022-09-10T11:19:43.093Z,100966.94
2022-09-10T11:22:22.872Z,100958.81
2022-09-10T11:25:00.504Z,100962.25
2022-09-10T11:27:37.648Z,100963.03
2022-09-10T11:30:10.563Z,100965.84
2022-09-10T11:33:05.567Z,100963.13
2022-09-10T11:35:44.607Z,100965.63
2022-09-10T11:38:36.812Z,100966.69
2022-09-10T11:41:22.306Z,100958.66
2022-09-10T11:44:15.472Z,100958.66
2022-09-10T11:46:58.204Z,100952.13
2022-09-10T11:49:39.336Z,100948.81
2022-09-10T11:52:06.217Z,100950.47
2022-09-10T11:54:35.736Z,100946.50
2022-09-10T11:57:40.244Z,100949.50
2022-09-10T12:00:18.394Z,100946.28
2022-09-10T12:03:30.736Z,100942.41
2022-09-10T12:06:22.269Z,100947.31
2022-09-10T12:09:09.340Z,100934.44
2022-09-10T12:12:09.076Z,100924.13
2022-09-10T12:14:39.942Z,100932.81
2022-09-10T12:17:29.946Z,100924.72
2022-09-10T12:19:59.001Z,100927.31
2022-09-10T12:22:31.769Z,100935.56
2022-09-10T12:25:28.338Z,100924.63
2022-09-10T12:28:01.526Z,100927.22
2022-09-10T12:30:29.126Z,100921.03
2022-09-10T12:33:01.870Z,100919.09
2022-09-10T12:35:45.976Z,100919.09
2022-09-10T12:39:09.179Z,100918.38
2022-09-10T12:41:36.108Z,100917.66
2022-09-10T12:44:34.407Z,100911.19
2022-09-10T12:47:16.469Z,100916.19
2022-09-10T12:49:49.506Z,100916.50
2022-09-10T12:52:40.732Z,100909.81
2022-09-10T12:55:48.910Z,100907.38
2022-09-10T12:58:58.961Z,100903.06
2022-09-10T13:01:46.376Z,100898.41
2022-09-10T13:04:37.201Z,100906.84
2022-09-10T13:07:25.118Z,100907.88
2022-09-10T13:10:14.943Z,100902.06
2022-09-10T13:12:45.052Z,100907.53
2022-09-10T13:15:24.053Z,100896.75
2022-09-10T13:17:51.406Z,100897.31
2022-09-10T13:20:21.207Z,100889.13
2022-09-10T13:23:10.108Z,100892.31
2022-09-10T13:25:45.881Z,100897.09
2022-09-10T13:28:31.335Z,100888.78
2022-09-10T13:31:09.103Z,100898.13
2022-09-10T13:34:14.100Z,100901.22
2022-09-10T13:37:17.415Z,100896.16
2022-09-10T13:40:08.851Z,100900.50
2022-09-10T13:43:07.645Z,100904.34
2022-09-10T13:45:42.052Z,100905.19
2022-09-10T13:48:27.514Z,100913.81
2022-09-10T13:51:11.162Z,100899.19
2022-09-10T13:53:43.818Z,100905.03
2022-09-10T13:56:21.564Z,100901.16
2022-09-10T13:58:51.597Z,100909.66
2022-09-10T14:01:18.610Z,100909.41
2022-09-10T14:03:45.559Z,100904.88
2022-09-10T14:06:18.296Z,100905.44
2022-09-10T14:09:04.762Z,100895.59
2022-09-10T14:11:41.304Z,100891.84
2022-09-10T14:14:19.234Z,100903.88
2022-09-10T14:16:52.623Z,100897.31
2022-09-10T14:19:26.384Z,100904.22
2022-09-10T14:21:55.719Z,100902.50
2022-09-10T14:24:59.764Z,100904.91
2022-09-10T14:27:30.989Z,100898.88
2022-09-10T14:30:25.924Z,100889.66
2022-09-10T14:32:53.219Z,100891.59
2022-09-10T14:35:37.113Z,100900.53
2022-09-10T14:38:26.470Z,100895.53
2022-09-10T14:41:08.465Z,100892.25
2022-09-10T14:43:38.976Z,100888.22
2022-09-10T14:46:08.259Z,100886.97
2022-09-10T14:48:39.452Z,100900.78
2022-09-10T14:51:21.946Z,100903.59
2022-09-10T14:53:56.984Z,100908.72
2022-09-10T14:56:37.983Z,100925.75
2022-09-10T14:59:36.339Z,100928.03
2022-09-10T15:02:15.530Z,100929.22
2022-09-10T15:04:42.453Z,100912.75
2022-09-10T15:07:10.140Z,100915.47
2022-09-10T15:09:37.012Z,100913.81
2022-09-10T15:12:24.336Z,100936.28
2022-09-10T15:14:52.088Z,100941.03
2022-09-10T15:17:19.688Z,100950.00
2022-09-10T15:19:47.242Z,100950.16
2022-09-10T15:22:23.669Z,100951.16
2022-09-10T15:25:08.987Z,100953.84
2022-09-10T15:27:36.335Z,100956.66
2022-09-10T15:30:03.479Z,100966.63
2022-09-10T15:32:30.765Z,100973.78
2022-09-10T15:34:57.646Z,100984.59
2022-09-10T15:37:24.578Z,101000.72
2022-09-10T15:39:51.669Z,101010.69
2022-09-10T15:42:18.659Z,101008.22
2022-09-10T15:44:45.532Z,101012.00
2022-09-10T15:47:12.415Z,101006.03
2022-09-10T15:49:39.319Z,100994.88
2022-09-10T15:52:06.224Z,100997.47
2022-09-10T15:54:33.895Z,100983.53
2022-09-10T15:57:01.204Z,100983.72
2022-09-10T15:59:28.526Z,100981.28
2022-09-10T16:01:55.459Z,100985.03
2022-09-10T16:04:22.947Z,100985.34
2022-09-10T16:06:49.871Z,100978.47
2022-09-10T16:09:16.943Z,100977.00
2022-09-10T16:11:44.457Z,100981.94
2022-09-10T16:14:14.679Z,100976.66
2022-09-10T16:16:41.883Z,100975.28
2022-09-10T16:19:12.059Z,100980.41
2022-09-10T16:21:39.296Z,100975.56
2022-09-10T16:24:06.962Z,100985.31
2022-09-10T16:26:41.605Z,100985.41
2022-09-10T16:29:15.907Z,100979.63
2022-09-10T16:31:45.489Z,100979.19
2022-09-10T16:34:19.047Z,100988.09
2022-09-10T16:36:51.508Z,100993.38
2022-09-10T16:39:19.867Z,101000.34
2022-09-10T16:41:49.088Z,101006.50
2022-09-10T16:44:17.779Z,101004.78
2022-09-10T16:46:46.552Z,101014.50
2022-09-10T16:49:15.064Z,101015.47
2022-09-10T16:51:44.196Z,101025.16
2022-09-10T16:54:13.538Z,101032.34
2022-09-10T16:56:43.933Z,101037.75
2022-09-10T16:59:15.734Z,101049.47
2022-09-10T17:01:48.407Z,101054.53
2022-09-10T17:04:20.646Z,101057.09
2022-09-10T17:06:50.780Z,101061.94
2022-09-10T17:09:17.963Z,101077.16
2022-09-10T17:11:44.852Z,101075.69
2022-09-10T17:14:12.368Z,101075.25
2022-09-10T17:16:41.564Z,101068.03
2022-09-10T17:19:23.231Z,101074.63
2022-09-10T17:21:53.437Z,101076.50
2022-09-10T17:24:23.401Z,101079.31
2022-09-10T17:26:51.055Z,101077.34
2022-09-10T17:29:22.237Z,101071.97
2022-09-10T17:31:52.029Z,101075.47
2022-09-10T17:34:21.341Z,101080.94
2022-09-10T17:36:49.081Z,101074.78
2022-09-10T17:39:16.890Z,101070.16
2022-09-10T17:41:44.065Z,101069.97
2022-09-10T17:44:12.148Z,101076.06
2022-09-10T17:46:39.443Z,101067.28
2022-09-10T17:49:06.688Z,101068.97
2022-09-10T17:51:34.962Z,101074.19
2022-09-10T17:54:03.270Z,101068.13
2022-09-10T17:56:31.300Z,101076.09
2022-09-10T17:59:01.675Z,101077.00
2022-09-10T18:01:38.828Z,101076.94
2022-09-10T18:04:12.660Z,101069.00
2022-09-10T18:06:40.747Z,101070.69
2022-09-10T18:09:08.660Z,101081.16
2022-09-10T18:11:39.528Z,101070.59
2022-09-10T18:14:07.209Z,101068.88
2022-09-10T18:16:36.285Z,101079.31
2022-09-10T18:19:13.728Z,101073.97
2022-09-10T18:21:42.049Z,101071.34
2022-09-10T18:24:19.022Z,101065.19
2022-09-10T18:26:48.288Z,101064.34
2022-09-10T18:29:27.740Z,101060.78
2022-09-10T18:31:57.935Z,101061.69
2022-09-10T18:34:28.603Z,101061.72
2022-09-10T18:36:58.570Z,101050.47
2022-09-10T18:39:27.629Z,101055.66
2022-09-10T18:41:55.086Z,101053.91
2022-09-10T18:44:27.205Z,101060.13
2022-09-10T18:46:54.466Z,101054.84
2022-09-10T18:49:24.379Z,101054.00
2022-09-10T18:51:52.408Z,101046.94
2022-09-10T18:54:21.760Z,101052.28
2022-09-10T18:56:49.585Z,101049.75
2022-09-10T18:59:20.221Z,101060.31
2022-09-10T19:01:49.337Z,101052.50
2022-09-10T19:04:20.128Z,101062.22
2022-09-10T19:06:48.529Z,101075.53
2022-09-10T19:09:19.546Z,101082.06
2022-09-10T19:11:49.609Z,101077.84
2022-09-10T19:14:29.866Z,101075.34
2022-09-10T19:16:58.637Z,101071.16
2022-09-10T19:19:31.730Z,101073.03
2022-09-10T19:22:03.317Z,101073.03
2022-09-10T19:24:53.362Z,101062.59
2022-09-10T19:27:17.658Z,101072.09
2022-09-10T19:29:47.157Z,101072.94
2022-09-10T19:32:15.140Z,101067.66
2022-09-10T19:34:42.691Z,101064.16
2022-09-10T19:37:09.770Z,101065.06
2022-09-10T19:39:36.739Z,101071.16
2022-09-10T19:42:04.178Z,101065.06
2022-09-10T19:44:31.047Z,101065.09
2022-09-10T19:46:58.674Z,101068.66
2022-09-10T19:49:25.590Z,101074.81
2022-09-10T19:51:52.506Z,101065.22
2022-09-10T19:54:19.422Z,101060.22
2022-09-10T19:56:46.309Z,101065.59
2022-09-10T19:59:14.465Z,101059.53
2022-09-10T20:01:43.617Z,101071.00
2022-09-10T20:04:12.624Z,101064.16
2022-09-10T20:06:40.298Z,101063.47
2022-09-10T20:09:09.791Z,101063.69
2022-09-10T20:11:37.186Z,101064.94
2022-09-10T20:14:10.729Z,101064.22
2022-09-10T20:16:42.260Z,101075.84
2022-09-10T20:19:11.565Z,101075.16
2022-09-10T20:21:38.526Z,101082.31
2022-09-10T20:24:07.285Z,101083.22
2022-09-10T20:26:43.893Z,101086.78
2022-09-10T20:29:17.834Z,101079.88
2022-09-10T20:31:46.213Z,101076.41
2022-09-10T20:34:19.723Z,101075.53
2022-09-10T20:36:50.252Z,101080.81
2022-09-10T20:39:19.774Z,101086.31
2022-09-10T20:41:46.997Z,101086.44
2022-09-10T20:44:16.508Z,101082.19
2022-09-10T20:46:44.498Z,101085.81
2022-09-10T20:49:13.810Z,101088.44
2022-09-10T20:51:41.364Z,101085.75
2022-09-10T20:54:13.907Z,101087.44
2022-09-10T20:56:41.424Z,101082.03
2022-09-10T20:59:08.295Z,101084.59
2022-09-10T21:01:35.223Z,101091.56
2022-09-10T21:04:04.103Z,101095.91
2022-09-10T21:06:33.258Z,101095.91
2022-09-10T21:09:02.063Z,101103.78
2022-09-10T21:11:32.418Z,101102.03
2022-09-10T21:14:01.904Z,101104.81
2022-09-10T21:16:37.981Z,101119.75
2022-09-10T21:19:09.396Z,101118.06
2022-09-10T21:21:39.330Z,101124.19
2022-09-10T21:24:16.640Z,101116.28
2022-09-10T21:26:44.396Z,101115.41
2022-09-10T21:29:17.768Z,101124.09
2022-09-10T21:31:45.563Z,101122.41
2022-09-10T21:34:13.679Z,101122.47
2022-09-10T21:36:41.882Z,101123.44
2022-09-10T21:39:14.368Z,101129.69
2022-09-10T21:41:47.609Z,101128.88
2022-09-10T21:44:18.394Z,101129.69
2022-09-10T21:46:46.677Z,101130.47
2022-09-10T21:49:14.321Z,101126.94
2022-09-10T21:51:41.912Z,101138.25
2022-09-10T21:54:20.435Z,101135.69
2022-09-10T21:56:48.688Z,101133.06
2022-09-10T21:59:16.121Z,101132.16
2022-09-10T22:01:45.410Z,101134.72
2022-09-10T22:04:13.727Z,101131.28
2022-09-10T22:06:40.858Z,101140.88
2022-09-10T22:09:14.859Z,101141.75
2022-09-10T22:11:50.157Z,101139.97
2022-09-10T22:14:20.883Z,101143.31
2022-09-10T22:16:48.251Z,101146.03
2022-09-10T22:19:18.895Z,101143.38
2022-09-10T22:21:47.080Z,101147.72
2022-09-10T22:24:19.226Z,101145.09
2022-09-10T22:26:47.341Z,101149.50
2022-09-10T22:29:19.997Z,101153.00
2022-09-10T22:31:47.918Z,101145.16
2022-09-10T22:34:16.536Z,101145.16
2022-09-10T22:36:46.137Z,101144.25
2022-09-10T22:39:21.288Z,101152.28
2022-09-10T22:41:50.078Z,101146.28
2022-09-10T22:44:18.044Z,101153.41
2022-09-10T22:46:44.967Z,101150.84
2022-09-10T22:49:11.900Z,101155.19
2022-09-10T22:51:43.336Z,101163.97
2022-09-10T22:54:11.299Z,101157.06
2022-09-10T22:56:38.372Z,101152.63
2022-09-10T22:59:06.571Z,101159.59
2022-09-10T23:01:37.558Z,101170.91
2022-09-10T23:04:06.327Z,101161.28
2022-09-10T23:06:35.479Z,101172.69
2022-09-10T23:09:11.088Z,101174.50
2022-09-10T23:11:39.196Z,101167.50
2022-09-10T23:14:10.785Z,101165.00
2022-09-10T23:16:41.901Z,101178.97
2022-09-10T23:19:15.653Z,101174.56
2022-09-10T23:21:46.483Z,101181.59
2022-09-10T23:24:17.166Z,101173.69
2022-09-10T23:26:44.782Z,101174.56
2022-09-10T23:29:12.523Z,101177.19
2022-09-10T23:31:40.935Z,101174.50
2022-09-10T23:34:12.995Z,101180.66
2022-09-10T23:36:42.822Z,101181.50
2022-09-10T23:39:14.823Z,101190.31
2022-09-10T23:41:42.202Z,101181.50
2022-09-10T23:44:09.855Z,101173.66
2022-09-10T23:46:37.567Z,101181.50
2022-09-10T23:49:05.523Z,101178.84
2022-09-10T23:51:32.383Z,101169.97
2022-09-10T23:53:59.569Z,101174.31
2022-09-10T23:56:28.331Z,101167.16
2022-09-10T23:58:56.416Z,101172.28
